createdAt,value
2022-08-26T00:01:53.880Z,54.00
2022-08-26T00:04:22.071Z,45.80
2022-08-26T00:06:49.436Z,59.05
2022-08-26T00:09:16.860Z,39.72
2022-08-26T00:11:45.473Z,43.35
2022-08-26T00:14:14.090Z,48.55
2022-08-26T00:16:48.199Z,49.22
2022-08-26T00:19:20.752Z,47.03
2022-08-26T00:21:49.844Z,46.42
2022-08-26T00:24:22.037Z,47.38
2022-08-26T00:26:49.831Z,39.53
2022-08-26T00:29:17.713Z,46.92
2022-08-26T00:31:45.659Z,46.13
2022-08-26T00:34:15.337Z,45.75
2022-08-26T00:36:43.033Z,49.45
2022-08-26T00:39:11.578Z,48.67
2022-08-26T00:41:40.760Z,48.78
2022-08-26T00:44:11.320Z,46.78
2022-08-26T00:46:46.955Z,52.83
2022-08-26T00:49:42.344Z,47.40
2022-08-26T00:52:14.770Z,39.28
2022-08-26T00:54:49.765Z,39.17
2022-08-26T00:57:18.780Z,53.50
2022-08-26T00:59:51.079Z,40.80
2022-08-26T01:02:19.963Z,47.97
2022-08-26T01:04:50.089Z,35.10
2022-08-26T01:07:24.890Z,47.03
2022-08-26T01:09:52.351Z,48.88
2022-08-26T01:12:22.048Z,49.13
2022-08-26T01:14:50.314Z,50.90
2022-08-26T01:17:17.736Z,44.65
2022-08-26T01:20:02.939Z,49.97
2022-08-26T01:23:05.158Z,52.33
2022-08-26T01:28:05.879Z,42.78
2022-08-26T01:30:35.687Z,44.42
2022-08-26T01:33:07.014Z,56.75
2022-08-26T01:35:34.450Z,52.42
2022-08-26T01:38:02.518Z,48.40
2022-08-26T01:40:34.525Z,51.42
2022-08-26T01:43:03.978Z,54.33
2022-08-26T01:45:33.993Z,47.45
2022-08-26T01:48:05.271Z,39.50
2022-08-26T01:50:35.399Z,53.57
2022-08-26T01:53:07.834Z,42.88
2022-08-26T01:55:39.295Z,51.10
2022-08-26T01:58:14.130Z,61.70
2022-08-26T02:00:41.059Z,49.78
2022-08-26T02:03:18.229Z,42.65
2022-08-26T02:06:00.254Z,46.42
2022-08-26T02:08:55.656Z,44.15
2022-08-26T02:11:22.733Z,56.70
2022-08-26T02:13:54.760Z,48.60
2022-08-26T02:16:24.775Z,49.90
2022-08-26T02:18:53.449Z,42.85
2022-08-26T02:21:20.647Z,50.50
2022-08-26T02:26:19.303Z,55.38
2022-08-26T02:29:04.145Z,52.30
2022-08-26T02:31:31.425Z,50.42
2022-08-26T02:34:13.773Z,46.03
2022-08-26T02:36:42.557Z,43.08
2022-08-26T02:39:10.380Z,52.45
2022-08-26T02:41:45.173Z,53.38
2022-08-26T02:44:13.325Z,45.65
2022-08-26T02:46:41.800Z,48.17
2022-08-26T02:49:14.247Z,55.58
2022-08-26T02:51:41.340Z,48.50
2022-08-26T02:54:10.108Z,55.60
2022-08-26T02:56:37.866Z,46.22
2022-08-26T02:59:04.918Z,53.80
2022-08-26T03:01:34.925Z,44.53
2022-08-26T03:04:04.029Z,47.95
2022-08-26T03:06:31.508Z,49.00
2022-08-26T03:09:00.011Z,50.47
2022-08-26T03:11:32.301Z,49.42
2022-08-26T03:14:01.782Z,47.83
2022-08-26T03:16:35.722Z,49.05
2022-08-26T03:19:05.101Z,49.10
2022-08-26T03:21:32.931Z,53.67
2022-08-26T03:24:00.503Z,44.13
2022-08-26T03:26:28.820Z,52.05
2022-08-26T03:29:15.323Z,57.45
2022-08-26T03:31:43.749Z,55.05
2022-08-26T03:34:14.411Z,52.00
2022-08-26T03:36:41.957Z,48.10
2022-08-26T03:39:10.859Z,49.33
2022-08-26T03:41:37.827Z,42.40
2022-08-26T03:44:06.546Z,40.97
2022-08-26T03:46:33.675Z,51.22
2022-08-26T03:49:02.386Z,64.45
2022-08-26T03:51:29.378Z,51.53
2022-08-26T03:53:59.229Z,54.03
2022-08-26T03:56:27.267Z,53.60
2022-08-26T03:58:54.679Z,56.72
2022-08-26T04:01:21.587Z,44.13
2022-08-26T04:03:58.233Z,57.55
2022-08-26T04:06:38.604Z,43.30
2022-08-26T04:09:13.866Z,46.25
2022-08-26T04:11:43.461Z,48.95
2022-08-26T04:14:17.623Z,58.60
2022-08-26T04:16:47.393Z,54.20
2022-08-26T04:19:15.924Z,64.28
2022-08-26T04:21:43.493Z,56.25
2022-08-26T04:24:12.896Z,57.33
2022-08-26T04:26:42.706Z,53.53
2022-08-26T04:29:21.253Z,48.70
2022-08-26T04:31:55.230Z,40.58
2022-08-26T04:34:27.250Z,49.22
2022-08-26T04:36:56.293Z,53.20
2022-08-26T04:39:23.396Z,43.13
2022-08-26T04:41:54.953Z,57.70
2022-08-26T04:44:22.720Z,43.65
2022-08-26T04:46:51.014Z,52.95
2022-08-26T04:49:18.031Z,46.42
2022-08-26T04:51:46.232Z,55.83
2022-08-26T04:54:14.308Z,54.88
2022-08-26T04:56:45.386Z,43.60
2022-08-26T04:59:16.805Z,50.97
2022-08-26T05:01:48.160Z,41.22
2022-08-26T05:04:16.224Z,45.13
2022-08-26T05:06:46.682Z,44.13
2022-08-26T05:09:15.340Z,57.42
2022-08-26T05:11:42.559Z,49.50
2022-08-26T05:14:09.943Z,51.22
2022-08-26T05:16:37.808Z,63.30
2022-08-26T05:19:08.517Z,52.05
2022-08-26T05:21:36.214Z,48.45
2022-08-26T05:24:04.905Z,55.55
2022-08-26T05:26:32.370Z,44.53
2022-08-26T05:28:59.520Z,62.35
2022-08-26T05:31:29.944Z,47.70
2022-08-26T05:33:58.413Z,58.97
2022-08-26T05:36:28.283Z,44.58
2022-08-26T05:38:56.228Z,42.92
2022-08-26T05:41:34.140Z,48.85
2022-08-26T05:44:06.142Z,51.50
2022-08-26T05:46:34.461Z,51.58
2022-08-26T05:49:01.943Z,48.65
2022-08-26T05:51:30.967Z,53.40
2022-08-26T05:53:58.603Z,49.15
2022-08-26T05:56:27.837Z,41.88
2022-08-26T05:58:58.403Z,44.83
2022-08-26T06:03:59.672Z,43.67
2022-08-26T06:06:34.950Z,44.03
2022-08-26T06:09:05.117Z,49.78
2022-08-26T06:11:33.440Z,40.92
2022-08-26T06:14:04.310Z,58.40
2022-08-26T06:16:34.826Z,46.75
2022-08-26T06:19:10.664Z,57.05
2022-08-26T06:21:41.554Z,48.67
2022-08-26T06:24:30.130Z,41.35
2022-08-26T06:27:01.798Z,50.10
2022-08-26T06:31:58.550Z,44.97
2022-08-26T06:34:29.744Z,46.00
2022-08-26T06:37:01.197Z,37.58
2022-08-26T06:39:30.742Z,39.15
2022-08-26T06:41:59.142Z,45.90
2022-08-26T06:44:26.909Z,51.28
2022-08-26T06:46:54.659Z,43.97
2022-08-26T06:49:26.902Z,46.15
2022-08-26T06:51:58.743Z,49.88
2022-08-26T06:54:26.872Z,56.97
2022-08-26T06:56:54.066Z,47.05
2022-08-26T06:59:21.932Z,44.78
2022-08-26T07:01:49.797Z,47.40
2022-08-26T07:04:22.030Z,46.90
2022-08-26T07:06:52.597Z,42.97
2022-08-26T07:09:21.856Z,47.55
2022-08-26T07:11:49.326Z,43.33
2022-08-26T07:14:17.071Z,46.90
2022-08-26T07:16:49.734Z,47.72
2022-08-26T07:19:29.883Z,40.30
2022-08-26T07:21:57.848Z,48.20
2022-08-26T07:24:24.809Z,47.85
2022-08-26T07:26:59.292Z,53.25
2022-08-26T07:29:26.399Z,52.10
2022-08-26T07:31:53.812Z,52.92
2022-08-26T07:34:24.148Z,33.20
2022-08-26T07:36:51.756Z,41.38
2022-08-26T07:39:19.873Z,40.63
2022-08-26T07:41:48.051Z,38.08
2022-08-26T07:44:15.843Z,42.97
2022-08-26T07:46:44.323Z,44.97
2022-08-26T07:49:20.194Z,40.50
2022-08-26T07:51:47.410Z,45.60
2022-08-26T07:54:14.295Z,43.63
2022-08-26T07:56:41.382Z,39.13
2022-08-26T07:59:14.035Z,54.10
2022-08-26T08:01:44.742Z,43.47
2022-08-26T08:04:17.824Z,44.67
2022-08-26T08:06:45.712Z,34.58
2022-08-26T08:09:16.143Z,44.50
2022-08-26T08:11:44.979Z,40.17
2022-08-26T08:14:12.755Z,44.92
2022-08-26T08:16:45.878Z,41.88
2022-08-26T08:19:15.254Z,35.72
2022-08-26T08:21:43.981Z,41.40
2022-08-26T08:24:11.897Z,33.38
2022-08-26T08:26:39.476Z,39.50
2022-08-26T08:29:08.862Z,50.78
2022-08-26T08:31:56.810Z,39.33
2022-08-26T08:34:28.393Z,38.33
2022-08-26T08:36:57.466Z,38.90
2022-08-26T08:39:25.095Z,45.13
2022-08-26T08:42:23.540Z,36.92
2022-08-26T08:44:52.966Z,40.88
2022-08-26T08:47:29.736Z,31.75
2022-08-26T08:50:03.201Z,33.97
2022-08-26T08:52:35.498Z,46.25
2022-08-26T08:55:10.986Z,31.20
2022-08-26T08:58:16.287Z,39.10
2022-08-26T09:00:54.294Z,38.50
2022-08-26T09:03:40.356Z,41.63
2022-08-26T09:06:17.483Z,37.92
2022-08-26T09:08:50.445Z,31.40
2022-08-26T09:11:20.099Z,37.15
2022-08-26T09:13:51.879Z,35.22
2022-08-26T09:16:32.580Z,37.70
2022-08-26T09:19:23.549Z,39.55
2022-08-26T09:21:58.489Z,37.67
2022-08-26T09:24:28.689Z,29.80
2022-08-26T09:26:58.470Z,30.67
2022-08-26T09:29:27.354Z,31.73
2022-08-26T09:32:21.332Z,37.22
2022-08-26T09:34:56.894Z,30.67
2022-08-26T09:40:36.347Z,32.80
2022-08-26T09:43:22.170Z,30.77
2022-08-26T09:45:59.461Z,27.35
2022-08-26T09:48:36.174Z,40.53
2022-08-26T09:51:30.330Z,37.03
2022-08-26T09:54:00.359Z,32.90
2022-08-26T09:56:32.855Z,25.02
2022-08-26T09:59:01.110Z,25.45
2022-08-26T10:01:38.473Z,37.03
2022-08-26T10:04:22.221Z,28.60
2022-08-26T10:06:57.443Z,26.70
2022-08-26T10:09:26.053Z,28.13
2022-08-26T10:12:03.371Z,29.02
2022-08-26T10:14:34.993Z,24.92
2022-08-26T10:17:11.595Z,28.75
2022-08-26T10:19:55.917Z,25.67
2022-08-26T10:22:27.160Z,26.35
2022-08-26T10:24:57.653Z,22.15
2022-08-26T10:27:51.172Z,30.23
2022-08-26T10:30:24.016Z,40.83
2022-08-26T10:32:56.886Z,23.30
2022-08-26T10:35:24.496Z,25.38
2022-08-26T10:37:57.056Z,22.10
2022-08-26T10:40:45.606Z,31.90
2022-08-26T10:43:22.557Z,28.85
2022-08-26T10:45:57.274Z,29.10
2022-08-26T10:48:37.987Z,29.05
2022-08-26T10:51:06.422Z,40.63
2022-08-26T10:53:56.834Z,20.33
2022-08-26T10:56:57.417Z,34.67
2022-08-26T10:59:44.117Z,31.63
2022-08-26T11:02:25.145Z,27.77
2022-08-26T11:04:58.685Z,30.25
2022-08-26T11:07:36.948Z,27.60
2022-08-26T11:10:14.056Z,30.02
2022-08-26T11:12:42.183Z,24.42
2022-08-26T11:15:13.912Z,26.10
2022-08-26T11:17:44.926Z,29.67
2022-08-26T11:20:41.840Z,27.90
2022-08-26T11:23:22.546Z,26.75
2022-08-26T11:25:57.474Z,31.27
2022-08-26T11:28:48.736Z,30.90
2022-08-26T11:31:18.636Z,26.05
2022-08-26T11:33:49.117Z,27.33
2022-08-26T11:37:01.589Z,35.10
2022-08-26T11:39:36.656Z,23.17
2022-08-26T11:42:20.640Z,33.45
2022-08-26T11:44:49.241Z,20.20
2022-08-26T11:47:25.606Z,38.42
2022-08-26T11:50:11.125Z,31.38
2022-08-26T11:52:37.934Z,25.60
2022-08-26T11:55:07.028Z,29.50
2022-08-26T11:57:40.736Z,31.40
2022-08-26T12:00:14.209Z,32.40
2022-08-26T12:02:42.545Z,38.10
2022-08-26T12:05:10.230Z,29.20
2022-08-26T12:07:38.252Z,38.85
2022-08-26T12:12:42.708Z,34.13
2022-08-26T12:15:14.867Z,29.02
2022-08-26T12:17:42.660Z,28.23
2022-08-26T12:20:24.374Z,28.77
2022-08-26T12:22:51.537Z,29.17
2022-08-26T12:25:24.055Z,26.85
2022-08-26T12:27:54.029Z,30.27
2022-08-26T12:30:26.180Z,28.35
2022-08-26T12:33:21.940Z,39.88
2022-08-26T12:35:54.387Z,38.17
2022-08-26T12:38:25.216Z,33.28
2022-08-26T12:40:52.728Z,25.05
2022-08-26T12:43:39.964Z,38.90
2022-08-26T12:46:09.122Z,36.05
2022-08-26T12:48:38.957Z,30.58
2022-08-26T12:51:25.795Z,35.03
2022-08-26T12:53:54.203Z,31.20
2022-08-26T12:56:39.147Z,31.08
2022-08-26T12:59:17.894Z,35.67
2022-08-26T13:01:45.698Z,30.60
2022-08-26T13:04:36.785Z,37.97
2022-08-26T13:07:26.627Z,45.47
2022-08-26T13:09:56.284Z,39.00
2022-08-26T13:12:24.734Z,31.63
2022-08-26T13:14:51.503Z,35.08
2022-08-26T13:17:18.402Z,29.63
2022-08-26T13:19:45.196Z,33.45
2022-08-26T13:22:13.975Z,25.40
2022-08-26T13:24:42.781Z,32.80
2022-08-26T13:27:12.837Z,35.05
2022-08-26T13:29:40.057Z,30.25
2022-08-26T13:32:09.180Z,35.92
2022-08-26T13:34:37.601Z,30.95
2022-08-26T13:37:05.318Z,28.02
2022-08-26T13:39:32.149Z,24.38
2022-08-26T13:42:00.269Z,31.63
2022-08-26T13:44:27.568Z,25.90
2022-08-26T13:46:57.565Z,33.85
2022-08-26T13:49:24.320Z,28.45
2022-08-26T13:51:51.248Z,29.92
2022-08-26T13:54:18.119Z,30.20
2022-08-26T13:56:45.289Z,35.17
2022-08-26T13:59:12.121Z,23.67
2022-08-26T14:01:40.207Z,24.95
2022-08-26T14:04:07.665Z,25.55
2022-08-26T14:06:34.462Z,32.83
2022-08-26T14:09:01.385Z,26.08
2022-08-26T14:11:29.584Z,31.83
2022-08-26T14:14:06.003Z,25.33
2022-08-26T14:16:36.509Z,56.03
2022-08-26T14:19:18.461Z,18.30
2022-08-26T14:21:51.166Z,12.27
2022-08-26T14:24:18.197Z,22.38
2022-08-26T14:26:44.978Z,24.27
2022-08-26T14:29:14.694Z,30.60
2022-08-26T14:34:13.955Z,22.60
2022-08-26T14:36:40.768Z,26.50
2022-08-26T14:39:10.505Z,10.70
2022-08-26T14:41:45.234Z,10.50
2022-08-26T14:44:24.309Z,17.63
2022-08-26T14:46:52.905Z,13.50
2022-08-26T14:49:22.331Z,12.20
2022-08-26T14:51:49.739Z,18.75
2022-08-26T14:54:18.353Z,17.42
2022-08-26T14:56:49.839Z,24.65
2022-08-26T14:59:20.622Z,33.22
2022-08-26T15:01:48.243Z,27.67
2022-08-26T15:04:16.012Z,30.65
2022-08-26T15:06:43.349Z,27.65
2022-08-26T15:09:10.567Z,32.30
2022-08-26T15:11:37.471Z,23.35
2022-08-26T15:14:04.968Z,31.92
2022-08-26T15:16:32.228Z,28.10
2022-08-26T15:19:00.626Z,25.45
2022-08-26T15:21:27.450Z,24.15
2022-08-26T15:23:54.678Z,25.50
2022-08-26T15:26:23.186Z,20.17
2022-08-26T15:28:51.256Z,18.55
2022-08-26T15:31:18.422Z,15.95
2022-08-26T15:33:45.838Z,20.73
2022-08-26T15:36:13.126Z,17.92
2022-08-26T15:38:42.612Z,20.10
2022-08-26T15:41:10.616Z,16.95
2022-08-26T15:43:38.337Z,28.02
2022-08-26T15:46:10.571Z,24.90
2022-08-26T15:48:38.531Z,25.48
2022-08-26T15:51:07.145Z,27.42
2022-08-26T15:53:35.443Z,28.25
2022-08-26T15:56:03.929Z,31.02
2022-08-26T15:58:30.766Z,19.00
2022-08-26T16:00:57.988Z,22.58
2022-08-26T16:03:25.142Z,24.33
2022-08-26T16:05:52.046Z,19.92
2022-08-26T16:08:19.586Z,24.65
2022-08-26T16:10:50.327Z,24.48
2022-08-26T16:13:20.038Z,16.92
2022-08-26T16:15:49.926Z,16.27
2022-08-26T16:18:17.285Z,30.77
2022-08-26T16:21:12.614Z,22.00
2022-08-26T16:23:38.495Z,21.17
2022-08-26T16:26:14.406Z,17.27
2022-08-26T16:28:41.379Z,25.23
2022-08-26T16:31:11.486Z,28.15
2022-08-26T16:33:38.511Z,19.17
2022-08-26T16:36:07.112Z,17.80
2022-08-26T16:38:34.643Z,20.50
2022-08-26T16:41:02.012Z,17.73
2022-08-26T16:43:29.269Z,22.67
2022-08-26T16:45:56.521Z,22.55
2022-08-26T16:48:23.996Z,74.05
2022-08-26T16:50:51.817Z,27.75
2022-08-26T16:53:19.220Z,23.77
2022-08-26T16:55:48.205Z,19.77
2022-08-26T16:58:15.465Z,28.33
2022-08-26T17:00:42.706Z,30.45
2022-08-26T17:03:10.185Z,29.02
2022-08-26T17:05:37.440Z,47.40
2022-08-26T17:08:05.246Z,19.05
2022-08-26T17:10:33.260Z,27.33
2022-08-26T17:13:00.425Z,26.70
2022-08-26T17:15:27.891Z,33.47
2022-08-26T17:17:55.570Z,28.00
2022-08-26T17:20:24.858Z,25.67
2022-08-26T17:22:54.478Z,27.80
2022-08-26T17:25:31.881Z,22.33
2022-08-26T17:27:59.658Z,17.08
2022-08-26T17:30:26.470Z,26.45
2022-08-26T17:32:54.935Z,23.80
2022-08-26T17:35:22.173Z,25.83
2022-08-26T17:37:49.719Z,22.63
2022-08-26T17:40:19.981Z,24.80
2022-08-26T17:42:48.084Z,18.15
2022-08-26T17:45:15.638Z,22.58
2022-08-26T17:47:42.721Z,24.30
2022-08-26T17:50:13.131Z,17.77
2022-08-26T17:52:41.297Z,18.90
2022-08-26T17:55:10.226Z,22.30
2022-08-26T17:57:40.823Z,21.05
2022-08-26T18:02:40.003Z,21.23
2022-08-26T18:05:08.443Z,26.00
2022-08-26T18:07:44.033Z,24.88
2022-08-26T18:10:15.782Z,21.83
2022-08-26T18:12:43.330Z,24.88
2022-08-26T18:15:11.555Z,21.45
2022-08-26T18:17:41.868Z,17.45
2022-08-26T18:20:11.191Z,19.60
2022-08-26T18:22:38.012Z,17.42
2022-08-26T18:25:06.154Z,25.33
2022-08-26T18:27:33.189Z,29.95
2022-08-26T18:30:00.222Z,14.80
2022-08-26T18:32:27.268Z,19.90
2022-08-26T18:34:54.217Z,20.88
2022-08-26T18:37:21.153Z,15.43
2022-08-26T18:39:48.832Z,25.10
2022-08-26T18:42:15.719Z,15.45
2022-08-26T18:44:42.512Z,23.35
2022-08-26T18:47:09.468Z,22.58
2022-08-26T18:49:36.658Z,22.23
2022-08-26T18:52:04.431Z,22.42
2022-08-26T18:54:31.214Z,20.63
2022-08-26T18:56:58.716Z,27.02
2022-08-26T18:59:29.690Z,23.27
2022-08-26T19:01:58.107Z,23.65
2022-08-26T19:04:25.075Z,16.98
2022-08-26T19:06:52.831Z,19.65
2022-08-26T19:09:20.948Z,22.95
2022-08-26T19:11:49.598Z,20.23
2022-08-26T19:14:17.810Z,23.23
2022-08-26T19:16:48.173Z,19.05
2022-08-26T19:19:16.282Z,23.17
2022-08-26T19:21:43.086Z,18.30
2022-08-26T19:24:15.781Z,21.65
2022-08-26T19:26:45.450Z,17.58
2022-08-26T19:29:13.849Z,24.65
2022-08-26T19:31:42.472Z,27.65
2022-08-26T19:34:11.814Z,20.38
2022-08-26T19:36:39.495Z,20.40
2022-08-26T19:39:12.246Z,19.50
2022-08-26T19:41:40.610Z,23.98
2022-08-26T19:44:34.801Z,16.63
2022-08-26T19:47:03.814Z,21.67
2022-08-26T19:49:31.494Z,20.90
2022-08-26T19:51:58.630Z,20.00
2022-08-26T19:54:25.600Z,22.98
2022-08-26T19:56:52.466Z,24.83
2022-08-26T19:59:19.518Z,23.92
2022-08-26T20:01:46.482Z,23.27
2022-08-26T20:04:28.024Z,20.42
2022-08-26T20:06:58.693Z,19.98
2022-08-26T20:09:28.735Z,25.48
2022-08-26T20:11:56.773Z,21.95
2022-08-26T20:14:25.662Z,25.38
2022-08-26T20:16:53.185Z,22.45
2022-08-26T20:19:38.590Z,28.35
2022-08-26T20:22:06.052Z,21.45
2022-08-26T20:24:33.585Z,18.77
2022-08-26T20:27:06.772Z,22.02
2022-08-26T20:29:35.195Z,17.40
2022-08-26T20:32:02.987Z,18.27
2022-08-26T20:34:30.240Z,26.90
2022-08-26T20:36:57.356Z,21.45
2022-08-26T20:39:24.166Z,20.00
2022-08-26T20:41:51.475Z,18.40
2022-08-26T20:44:18.282Z,26.17
2022-08-26T20:46:45.526Z,24.25
2022-08-26T20:49:13.530Z,18.70
2022-08-26T20:51:41.361Z,20.02
2022-08-26T20:54:08.837Z,25.08
2022-08-26T20:56:35.821Z,20.67
2022-08-26T20:59:05.574Z,18.40
2022-08-26T21:01:34.761Z,15.52
2022-08-26T21:04:05.735Z,19.48
2022-08-26T21:06:34.023Z,27.00
2022-08-26T21:09:01.833Z,17.70
2022-08-26T21:11:29.287Z,15.13
2022-08-26T21:14:07.103Z,20.67
2022-08-26T21:16:43.540Z,19.70
2022-08-26T21:19:13.331Z,24.90
2022-08-26T21:21:41.201Z,22.85
2022-08-26T21:24:08.876Z,25.63
2022-08-26T21:26:35.974Z,18.30
2022-08-26T21:29:03.925Z,22.67
2022-08-26T21:31:32.349Z,19.00
2022-08-26T21:33:59.627Z,21.30
2022-08-26T21:36:27.100Z,21.85
2022-08-26T21:38:57.050Z,26.00
2022-08-26T21:41:25.203Z,22.50
2022-08-26T21:43:55.287Z,25.92
2022-08-26T21:46:24.865Z,25.85
2022-08-26T21:49:03.725Z,25.10
2022-08-26T21:51:35.659Z,25.70
2022-08-26T21:54:10.553Z,27.73
2022-08-26T21:56:45.209Z,23.50
2022-08-26T21:59:13.732Z,33.38
2022-08-26T22:01:40.737Z,23.27
2022-08-26T22:04:09.372Z,25.50
2022-08-26T22:06:43.358Z,27.48
2022-08-26T22:09:11.536Z,32.15
2022-08-26T22:11:38.509Z,27.58
2022-08-26T22:14:05.596Z,30.27
2022-08-26T22:16:32.474Z,32.65
2022-08-26T22:18:59.844Z,33.88
2022-08-26T22:21:28.465Z,39.05
2022-08-26T22:23:58.051Z,34.72
2022-08-26T22:26:28.168Z,32.38
2022-08-26T22:28:58.660Z,39.72
2022-08-26T22:31:37.245Z,29.65
2022-08-26T22:34:12.299Z,32.00
2022-08-26T22:36:43.889Z,33.22
2022-08-26T22:39:14.109Z,24.80
2022-08-26T22:41:43.181Z,27.30
2022-08-26T22:44:11.933Z,36.38
2022-08-26T22:46:40.352Z,34.20
2022-08-26T22:49:09.651Z,34.47
2022-08-26T22:51:36.671Z,32.75
2022-08-26T22:54:04.805Z,33.35
2022-08-26T22:56:31.903Z,36.10
2022-08-26T22:58:58.829Z,32.67
2022-08-26T23:01:25.956Z,26.83
2022-08-26T23:03:53.275Z,30.98
2022-08-26T23:06:20.059Z,33.85
2022-08-26T23:08:47.694Z,30.75
2022-08-26T23:11:15.079Z,36.00
2022-08-26T23:13:42.488Z,40.55
2022-08-26T23:16:12.503Z,37.17
2022-08-26T23:18:41.128Z,33.20
2022-08-26T23:21:08.981Z,36.35
2022-08-26T23:23:36.377Z,26.95
2022-08-26T23:26:05.923Z,28.98
2022-08-26T23:28:34.615Z,30.23
2022-08-26T23:31:01.657Z,34.00
2022-08-26T23:33:48.689Z,33.25
2022-08-26T23:36:17.690Z,28.23
2022-08-26T23:38:52.388Z,30.52
2022-08-26T23:41:22.835Z,32.75
2022-08-26T23:43:50.314Z,33.15
2022-08-26T23:46:18.488Z,30.70
2022-08-26T23:48:45.597Z,31.40
2022-08-26T23:51:31.326Z,33.75
2022-08-26T23:53:58.226Z,38.38
2022-08-26T23:56:26.754Z,30.98
2022-08-26T23:58:54.635Z,25.42
